createdAt,value
2019-03-06T00:00:57.943Z,97.00
2019-03-06T00:03:27.137Z,97.00
2019-03-06T00:05:56.325Z,97.20
2019-03-06T00:08:25.332Z,96.90
2019-03-06T00:10:54.498Z,96.80
2019-03-06T00:13:24.649Z,96.70
2019-03-06T00:15:53.697Z,96.40
2019-03-06T00:18:22.636Z,96.40
2019-03-06T00:20:53.976Z,96.40
2019-03-06T00:23:23.014Z,96.20
2019-03-06T00:25:53.536Z,96.20
2019-03-06T00:28:22.595Z,96.20
2019-03-06T00:30:51.738Z,96.30
2019-03-06T00:33:20.859Z,96.20
2019-03-06T00:35:51.082Z,96.10
2019-03-06T00:38:21.490Z,95.70
2019-03-06T00:40:58.946Z,95.80
2019-03-06T00:43:28.298Z,95.70
2019-03-06T00:45:57.436Z,95.50
2019-03-06T00:48:26.280Z,95.40
2019-03-06T00:50:55.159Z,95.30
2019-03-06T00:53:24.111Z,95.40
2019-03-06T00:55:53.227Z,95.20
2019-03-06T00:58:22.352Z,95.20
2019-03-06T01:00:51.450Z,95.00
2019-03-06T01:03:20.795Z,94.90
2019-03-06T01:05:50.605Z,94.90
2019-03-06T01:08:19.582Z,94.90
2019-03-06T01:10:48.696Z,94.90
2019-03-06T01:13:18.056Z,94.70
2019-03-06T01:15:47.230Z,94.70
2019-03-06T01:18:16.218Z,94.70
2019-03-06T01:20:45.127Z,94.70
2019-03-06T01:23:14.180Z,94.70
2019-03-06T01:25:43.412Z,94.70
2019-03-06T01:28:12.351Z,94.70
2019-03-06T01:30:41.615Z,94.40
2019-03-06T01:33:16.755Z,94.40
2019-03-06T01:36:12.574Z,94.30
2019-03-06T01:39:06.651Z,93.90
2019-03-06T01:41:57.600Z,93.90
2019-03-06T01:44:42.445Z,93.90
2019-03-06T01:47:11.594Z,93.70
2019-03-06T01:49:43.034Z,93.70
2019-03-06T01:52:12.054Z,93.70
2019-03-06T01:54:41.308Z,93.70
2019-03-06T01:57:10.418Z,93.50
2019-03-06T01:59:39.411Z,93.30
2019-03-06T02:02:08.507Z,93.40
2019-03-06T02:04:37.877Z,93.40
2019-03-06T02:07:08.844Z,93.40
2019-03-06T02:09:37.977Z,93.30
2019-03-06T02:12:07.739Z,93.20
2019-03-06T02:14:36.732Z,93.30
2019-03-06T02:17:05.780Z,93.30
2019-03-06T02:19:34.837Z,93.40
2019-03-06T02:22:04.442Z,93.40
2019-03-06T02:24:33.546Z,93.40
2019-03-06T02:27:02.514Z,93.50
2019-03-06T02:29:31.708Z,93.60
2019-03-06T02:32:00.772Z,93.50
2019-03-06T02:34:29.950Z,93.60
2019-03-06T02:36:59.000Z,93.60
2019-03-06T02:39:27.994Z,93.60
2019-03-06T02:41:56.984Z,93.70
2019-03-06T02:44:26.067Z,93.60
2019-03-06T02:46:55.182Z,93.70
2019-03-06T02:49:24.211Z,93.60
2019-03-06T02:51:53.246Z,93.70
2019-03-06T02:54:22.284Z,93.70
2019-03-06T02:56:51.383Z,93.70
2019-03-06T02:59:40.232Z,93.60
2019-03-06T03:02:17.475Z,93.70
2019-03-06T03:05:04.388Z,93.70
2019-03-06T03:07:33.625Z,93.70
2019-03-06T03:10:02.587Z,93.90
2019-03-06T03:12:31.535Z,94.20
2019-03-06T03:15:00.510Z,94.10
2019-03-06T03:17:29.589Z,94.00
2019-03-06T03:19:58.525Z,93.90
2019-03-06T03:22:27.504Z,93.90
2019-03-06T03:24:56.375Z,93.90
2019-03-06T03:27:25.367Z,94.00
2019-03-06T03:29:54.643Z,94.00
2019-03-06T03:32:23.666Z,94.10
2019-03-06T03:34:52.628Z,94.00
2019-03-06T03:37:24.616Z,94.00
2019-03-06T03:39:53.951Z,94.00
2019-03-06T03:42:23.322Z,93.90
2019-03-06T03:44:53.399Z,93.90
2019-03-06T03:47:22.388Z,93.90
2019-03-06T03:49:51.460Z,94.10
2019-03-06T03:52:20.397Z,94.00
2019-03-06T03:54:49.339Z,94.00
2019-03-06T03:57:18.627Z,94.00
2019-03-06T03:59:47.744Z,94.10
2019-03-06T04:02:16.760Z,94.10
2019-03-06T04:04:45.700Z,94.10
2019-03-06T04:07:23.021Z,94.20
2019-03-06T04:09:52.010Z,94.10
2019-03-06T04:12:21.073Z,94.10
2019-03-06T04:14:51.492Z,94.10
2019-03-06T04:17:20.496Z,94.10
2019-03-06T04:19:49.365Z,94.10
2019-03-06T04:22:18.396Z,94.10
2019-03-06T04:24:47.453Z,94.00
2019-03-06T04:27:16.881Z,94.10
2019-03-06T04:29:46.028Z,94.10
2019-03-06T04:32:14.959Z,94.10
2019-03-06T04:34:43.973Z,94.10
2019-03-06T04:37:13.305Z,94.20
2019-03-06T04:39:42.319Z,94.20
2019-03-06T04:42:11.326Z,94.20
2019-03-06T04:44:40.653Z,94.40
2019-03-06T04:47:13.015Z,94.40
2019-03-06T04:49:42.123Z,94.40
2019-03-06T04:52:11.112Z,94.30
2019-03-06T04:54:40.165Z,94.30
2019-03-06T04:57:09.367Z,94.30
2019-03-06T04:59:38.317Z,94.30
2019-03-06T05:02:07.248Z,94.30
2019-03-06T05:04:36.469Z,94.40
2019-03-06T05:07:05.461Z,94.40
2019-03-06T05:09:34.477Z,94.60
2019-03-06T05:12:03.506Z,94.70
2019-03-06T05:14:32.525Z,94.60
2019-03-06T05:17:19.451Z,94.80
2019-03-06T05:19:48.737Z,94.80
2019-03-06T05:22:17.708Z,94.90
2019-03-06T05:24:46.707Z,94.90
2019-03-06T05:27:15.798Z,95.00
2019-03-06T05:29:44.833Z,94.90
2019-03-06T05:32:38.441Z,94.90
2019-03-06T05:35:11.439Z,95.10
2019-03-06T05:37:58.553Z,95.10
2019-03-06T05:40:27.625Z,95.20
2019-03-06T05:42:56.965Z,95.30
2019-03-06T05:45:26.092Z,95.30
2019-03-06T05:47:55.188Z,95.50
2019-03-06T05:50:24.116Z,95.70
2019-03-06T05:52:53.487Z,95.90
2019-03-06T05:55:22.671Z,96.00
2019-03-06T05:57:51.954Z,96.30
2019-03-06T06:00:26.057Z,96.30
2019-03-06T06:02:55.174Z,96.10
2019-03-06T06:05:24.614Z,96.50
2019-03-06T06:07:53.878Z,96.40
2019-03-06T06:10:23.140Z,96.10
2019-03-06T06:12:54.390Z,95.90
2019-03-06T06:15:23.471Z,96.00
2019-03-06T06:17:54.038Z,96.00
2019-03-06T06:20:23.350Z,96.00
2019-03-06T06:23:16.543Z,96.00
2019-03-06T06:25:46.147Z,96.20
2019-03-06T06:28:15.460Z,96.10
2019-03-06T06:30:45.954Z,96.20
2019-03-06T06:33:15.132Z,96.30
2019-03-06T06:35:44.417Z,96.40
2019-03-06T06:38:13.738Z,96.50
2019-03-06T06:40:43.248Z,96.40
2019-03-06T06:43:12.330Z,96.40
2019-03-06T06:45:41.514Z,96.00
2019-03-06T06:48:20.047Z,96.00
2019-03-06T06:51:01.736Z,96.20
2019-03-06T06:53:38.316Z,96.50
2019-03-06T06:56:24.180Z,96.50
2019-03-06T06:59:13.790Z,96.40
2019-03-06T07:02:07.388Z,96.30
2019-03-06T07:05:31.230Z,96.40
2019-03-06T07:08:19.212Z,96.30
2019-03-06T07:10:57.717Z,96.30
2019-03-06T07:13:44.551Z,96.40
2019-03-06T07:16:37.867Z,96.40
2019-03-06T07:19:16.680Z,96.30
2019-03-06T07:22:13.824Z,96.70
2019-03-06T07:25:00.579Z,96.80
2019-03-06T07:27:36.150Z,96.80
2019-03-06T07:30:28.820Z,96.90
2019-03-06T07:33:17.994Z,96.60
2019-03-06T07:36:14.158Z,96.70
2019-03-06T07:38:56.276Z,96.80
2019-03-06T07:41:42.681Z,96.70
2019-03-06T07:44:32.302Z,96.50
2019-03-06T07:47:19.233Z,96.40
2019-03-06T07:50:00.390Z,96.80
2019-03-06T07:52:47.302Z,96.80
2019-03-06T07:55:38.394Z,96.60
2019-03-06T07:58:43.115Z,96.70
2019-03-06T08:01:17.112Z,96.70
2019-03-06T08:03:47.670Z,96.70
2019-03-06T08:06:16.906Z,96.60
2019-03-06T08:08:46.147Z,96.60
2019-03-06T08:11:34.356Z,96.60
2019-03-06T08:14:22.055Z,96.60
2019-03-06T08:16:50.432Z,96.40
2019-03-06T08:19:38.792Z,96.20
2019-03-06T08:22:23.860Z,96.30
2019-03-06T08:24:59.950Z,96.30
2019-03-06T08:27:30.930Z,96.00
2019-03-06T08:30:00.362Z,95.60
2019-03-06T08:32:32.154Z,95.60
2019-03-06T08:35:01.426Z,96.00
2019-03-06T08:37:30.520Z,95.80
2019-03-06T08:39:59.645Z,95.50
2019-03-06T08:42:32.544Z,95.20
2019-03-06T08:45:01.472Z,94.40
2019-03-06T08:47:52.082Z,94.40
2019-03-06T08:50:40.521Z,94.20
2019-03-06T08:53:12.172Z,94.00
2019-03-06T08:56:07.439Z,94.20
2019-03-06T08:59:01.073Z,93.80
2019-03-06T09:01:48.224Z,93.60
2019-03-06T09:04:36.527Z,93.40
2019-03-06T09:07:20.873Z,93.40
2019-03-06T09:10:15.255Z,93.10
2019-03-06T09:12:52.871Z,93.10
2019-03-06T09:20:07.497Z,93.00
2019-03-06T09:37:27.531Z,92.10
2019-03-06T09:40:25.196Z,92.00
2019-03-06T09:43:09.790Z,91.70
2019-03-06T09:46:01.311Z,91.50
2019-03-06T09:48:55.225Z,91.00
2019-03-06T09:51:53.814Z,90.70
2019-03-06T09:54:40.686Z,90.60
2019-03-06T09:57:31.429Z,90.90
2019-03-06T10:00:08.509Z,90.30
2019-03-06T10:03:08.528Z,89.70
2019-03-06T10:05:44.815Z,89.30
2019-03-06T10:08:33.325Z,88.20
2019-03-06T10:11:22.070Z,87.70
2019-03-06T10:14:00.518Z,89.90
2019-03-06T10:17:00.539Z,89.20
2019-03-06T10:19:34.323Z,88.70
2019-03-06T10:22:03.679Z,88.50
2019-03-06T10:24:33.077Z,86.60
2019-03-06T10:27:02.419Z,86.80
2019-03-06T10:29:31.832Z,87.50
2019-03-06T10:32:01.110Z,86.70
2019-03-06T10:34:30.360Z,86.80
2019-03-06T10:36:59.391Z,85.60
2019-03-06T10:39:28.671Z,84.70
2019-03-06T10:41:58.151Z,84.50
2019-03-06T10:46:58.485Z,83.50
2019-03-06T10:49:27.819Z,83.40
2019-03-06T10:51:57.036Z,81.10
2019-03-06T10:54:27.057Z,78.30
2019-03-06T10:56:56.157Z,78.90
2019-03-06T10:59:25.150Z,75.40
2019-03-06T11:01:54.631Z,74.30
2019-03-06T11:04:41.340Z,75.70
2019-03-06T11:07:10.643Z,75.10
2019-03-06T11:09:39.839Z,75.10
2019-03-06T11:12:09.090Z,73.70
2019-03-06T11:14:38.657Z,72.50
2019-03-06T11:17:07.948Z,73.90
2019-03-06T11:19:38.119Z,72.20
2019-03-06T11:22:07.519Z,72.40
2019-03-06T11:24:37.445Z,72.10
2019-03-06T11:27:07.513Z,71.50
2019-03-06T11:29:36.987Z,69.10
2019-03-06T11:32:07.293Z,69.00
2019-03-06T11:34:36.862Z,69.40
2019-03-06T11:37:07.917Z,67.30
2019-03-06T11:39:37.259Z,67.20
2019-03-06T11:42:06.654Z,67.20
2019-03-06T11:44:35.748Z,64.50
2019-03-06T11:47:05.011Z,64.00
2019-03-06T11:49:34.289Z,63.30
2019-03-06T11:52:03.693Z,61.90
2019-03-06T11:54:36.187Z,62.20
2019-03-06T11:57:05.642Z,62.90
2019-03-06T11:59:34.719Z,61.30
2019-03-06T12:02:05.796Z,62.90
2019-03-06T12:04:35.358Z,61.00
2019-03-06T12:07:04.989Z,61.20
2019-03-06T12:09:34.333Z,61.20
2019-03-06T12:12:04.616Z,61.50
2019-03-06T12:14:34.091Z,62.40
2019-03-06T12:17:03.187Z,61.90
2019-03-06T12:19:32.519Z,61.10
2019-03-06T12:22:01.715Z,61.10
2019-03-06T12:24:31.048Z,61.60
2019-03-06T12:27:00.211Z,61.60
2019-03-06T12:29:30.342Z,62.40
2019-03-06T12:31:59.387Z,63.70
2019-03-06T12:34:28.748Z,62.60
2019-03-06T12:36:57.839Z,63.20
2019-03-06T12:39:27.232Z,64.30
2019-03-06T12:41:56.316Z,62.60
2019-03-06T12:44:25.736Z,62.40
2019-03-06T12:46:56.585Z,62.50
2019-03-06T12:49:34.387Z,62.40
2019-03-06T12:52:03.688Z,62.30
2019-03-06T12:54:32.777Z,63.00
2019-03-06T12:57:01.947Z,62.00
2019-03-06T12:59:31.477Z,61.40
2019-03-06T13:02:00.547Z,62.20
2019-03-06T13:04:30.358Z,62.70
2019-03-06T13:07:02.768Z,62.50
2019-03-06T13:09:37.539Z,63.50
2019-03-06T13:12:05.380Z,63.00
2019-03-06T13:14:35.751Z,63.40
2019-03-06T13:17:04.928Z,63.20
2019-03-06T13:19:34.031Z,64.50
2019-03-06T13:22:11.081Z,65.60
2019-03-06T13:24:34.001Z,64.60
2019-03-06T13:27:03.338Z,63.90
2019-03-06T13:29:32.491Z,64.00
2019-03-06T13:32:01.713Z,64.00
2019-03-06T13:34:51.180Z,64.70
2019-03-06T13:37:20.222Z,64.70
2019-03-06T13:39:49.381Z,64.60
2019-03-06T13:42:18.522Z,64.80
2019-03-06T13:44:48.928Z,64.50
2019-03-06T13:47:20.547Z,65.00
2019-03-06T13:49:51.291Z,65.00
2019-03-06T13:52:20.806Z,65.20
2019-03-06T13:54:49.928Z,64.80
2019-03-06T13:57:20.104Z,64.70
2019-03-06T13:59:51.008Z,64.90
2019-03-06T14:02:20.645Z,65.40
2019-03-06T14:04:55.579Z,66.40
2019-03-06T14:07:25.205Z,65.30
2019-03-06T14:09:54.690Z,65.30
2019-03-06T14:12:24.679Z,65.40
2019-03-06T14:14:53.858Z,65.50
2019-03-06T14:17:23.465Z,65.50
2019-03-06T14:19:52.914Z,65.30
2019-03-06T14:22:22.390Z,65.20
2019-03-06T14:24:51.670Z,65.90
2019-03-06T14:27:20.786Z,65.70
2019-03-06T14:29:51.165Z,65.40
2019-03-06T14:32:20.836Z,65.90
2019-03-06T14:34:55.701Z,65.50
2019-03-06T14:37:27.703Z,65.80
2019-03-06T14:39:56.952Z,65.90
2019-03-06T14:42:26.225Z,66.40
2019-03-06T14:44:55.681Z,66.00
2019-03-06T14:47:24.814Z,66.40
2019-03-06T14:49:53.916Z,66.70
2019-03-06T14:52:23.053Z,66.30
2019-03-06T14:54:52.198Z,66.70
2019-03-06T14:57:21.298Z,66.50
2019-03-06T14:59:50.616Z,67.00
2019-03-06T15:02:22.103Z,66.60
2019-03-06T15:04:51.458Z,66.50
2019-03-06T15:07:20.662Z,66.90
2019-03-06T15:09:49.755Z,67.30
2019-03-06T15:12:19.178Z,67.40
2019-03-06T15:14:51.222Z,67.20
2019-03-06T15:17:20.884Z,67.20
2019-03-06T15:19:50.110Z,67.10
2019-03-06T15:22:19.292Z,67.00
2019-03-06T15:24:48.550Z,66.90
2019-03-06T15:27:17.559Z,67.90
2019-03-06T15:29:47.054Z,67.70
2019-03-06T15:32:17.506Z,67.70
2019-03-06T15:34:46.842Z,68.60
2019-03-06T15:37:16.027Z,68.70
2019-03-06T15:39:48.537Z,68.10
2019-03-06T15:42:16.627Z,68.90
2019-03-06T15:44:47.940Z,69.30
2019-03-06T15:47:20.325Z,69.30
2019-03-06T15:49:49.816Z,69.30
2019-03-06T15:52:18.966Z,69.60
2019-03-06T15:54:48.467Z,69.80
2019-03-06T15:57:17.745Z,70.70
2019-03-06T15:59:47.310Z,71.20
2019-03-06T16:02:19.667Z,71.10
2019-03-06T16:04:49.354Z,70.40
2019-03-06T16:07:18.763Z,70.00
2019-03-06T16:09:47.902Z,70.30
2019-03-06T16:12:17.412Z,70.70
2019-03-06T16:14:50.193Z,70.30
2019-03-06T16:17:21.354Z,70.80
2019-03-06T16:19:50.435Z,72.50
2019-03-06T16:22:19.560Z,70.90
2019-03-06T16:24:49.694Z,70.60
2019-03-06T16:27:18.889Z,70.60
2019-03-06T16:29:48.791Z,71.50
2019-03-06T16:32:18.202Z,72.10
2019-03-06T16:34:47.658Z,71.90
2019-03-06T16:37:16.941Z,72.80
2019-03-06T16:39:46.010Z,71.90
2019-03-06T16:42:17.310Z,72.60
2019-03-06T16:44:51.531Z,71.80
2019-03-06T16:47:20.997Z,72.00
2019-03-06T16:49:51.057Z,72.10
2019-03-06T16:52:20.398Z,72.60
2019-03-06T16:54:49.665Z,72.30
2019-03-06T16:57:23.849Z,74.40
2019-03-06T16:59:52.985Z,73.10
2019-03-06T17:02:22.441Z,72.90
2019-03-06T17:04:51.803Z,72.50
2019-03-06T17:07:21.384Z,72.50
2019-03-06T17:09:50.852Z,72.80
2019-03-06T17:12:29.618Z,72.90
2019-03-06T17:14:58.792Z,74.00
2019-03-06T17:17:28.001Z,72.80
2019-03-06T17:19:57.559Z,73.70
2019-03-06T17:22:26.838Z,74.40
2019-03-06T17:24:56.003Z,75.10
2019-03-06T17:27:25.672Z,73.40
2019-03-06T17:29:58.308Z,73.00
2019-03-06T17:32:27.573Z,73.40
2019-03-06T17:34:57.024Z,73.40
2019-03-06T17:37:26.142Z,73.60
2019-03-06T17:39:56.480Z,73.90
2019-03-06T17:42:25.694Z,73.90
2019-03-06T17:44:55.138Z,75.60
2019-03-06T17:47:24.329Z,74.60
2019-03-06T17:49:53.451Z,73.80
2019-03-06T17:52:22.724Z,73.50
2019-03-06T17:54:52.284Z,74.10
2019-03-06T17:57:21.661Z,75.00
2019-03-06T17:59:54.664Z,75.90
2019-03-06T18:02:26.311Z,74.70
2019-03-06T18:04:55.253Z,75.10
2019-03-06T18:07:24.510Z,75.10
2019-03-06T18:09:53.812Z,74.20
2019-03-06T18:12:23.160Z,73.90
2019-03-06T18:14:52.683Z,74.70
2019-03-06T18:17:27.573Z,74.50
2019-03-06T18:19:56.532Z,74.40
2019-03-06T18:22:29.928Z,75.50
2019-03-06T18:24:59.286Z,77.60
2019-03-06T18:27:29.573Z,75.50
2019-03-06T18:29:58.640Z,74.40
2019-03-06T18:32:31.175Z,75.10
2019-03-06T18:35:00.523Z,74.70
2019-03-06T18:37:29.960Z,75.60
2019-03-06T18:39:58.975Z,74.90
2019-03-06T18:42:28.118Z,73.80
2019-03-06T18:44:59.034Z,74.00
2019-03-06T18:47:28.036Z,74.80
2019-03-06T18:49:57.428Z,73.70
2019-03-06T18:52:45.856Z,75.60
2019-03-06T18:55:17.666Z,75.20
2019-03-06T18:57:47.200Z,73.60
2019-03-06T19:00:18.671Z,73.80
2019-03-06T19:03:00.823Z,73.90
2019-03-06T19:05:29.307Z,73.50
2019-03-06T19:07:58.439Z,73.10
2019-03-06T19:10:27.750Z,73.20
2019-03-06T19:12:56.897Z,72.90
2019-03-06T19:15:26.183Z,73.20
2019-03-06T19:17:58.183Z,72.50
2019-03-06T19:20:27.474Z,72.10
2019-03-06T19:22:56.677Z,72.10
2019-03-06T19:25:26.898Z,72.20
2019-03-06T19:27:58.106Z,72.10
2019-03-06T19:30:32.306Z,71.70
2019-03-06T19:33:05.205Z,72.00
2019-03-06T19:35:34.503Z,71.50
2019-03-06T19:38:04.686Z,71.00
2019-03-06T19:40:33.816Z,70.90
2019-03-06T19:43:02.889Z,70.90
2019-03-06T19:45:32.214Z,70.80
2019-03-06T19:48:01.760Z,70.70
2019-03-06T19:50:30.807Z,70.60
2019-03-06T19:53:00.353Z,70.50
2019-03-06T19:55:29.376Z,70.60
2019-03-06T19:58:00.076Z,70.50
2019-03-06T20:00:33.773Z,70.30
2019-03-06T20:03:03.206Z,70.00
2019-03-06T20:06:07.204Z,69.80
2019-03-06T20:08:48.013Z,69.60
2019-03-06T20:11:19.065Z,69.40
2019-03-06T20:13:48.468Z,69.60
2019-03-06T20:16:17.722Z,69.50
2019-03-06T20:18:46.885Z,69.50
2019-03-06T20:21:16.019Z,68.90
2019-03-06T20:23:45.335Z,69.30
2019-03-06T20:26:15.880Z,69.30
2019-03-06T20:28:45.471Z,70.20
2019-03-06T20:31:14.611Z,69.10
2019-03-06T20:33:43.820Z,69.20
2019-03-06T20:36:13.052Z,68.50
2019-03-06T20:38:42.293Z,69.10
2019-03-06T20:41:13.309Z,69.30
2019-03-06T20:43:45.143Z,68.80
2019-03-06T20:46:22.178Z,68.70
2019-03-06T20:48:50.140Z,68.60
2019-03-06T20:51:19.336Z,68.40
2019-03-06T20:53:48.402Z,68.70
2019-03-06T20:56:18.317Z,68.60
2019-03-06T20:58:49.400Z,68.70
2019-03-06T21:01:18.732Z,68.50
2019-03-06T21:03:50.153Z,68.30
2019-03-06T21:06:18.773Z,68.10
2019-03-06T21:08:47.832Z,68.20
2019-03-06T21:11:19.824Z,68.00
2019-03-06T21:13:54.933Z,68.30
2019-03-06T21:16:25.670Z,68.30
2019-03-06T21:18:54.953Z,68.80
2019-03-06T21:21:23.945Z,68.80
2019-03-06T21:23:52.963Z,68.60
2019-03-06T21:26:22.705Z,68.90
2019-03-06T21:28:53.994Z,68.20
2019-03-06T21:31:23.069Z,68.40
2019-03-06T21:33:53.654Z,68.30
2019-03-06T21:36:22.900Z,69.00
2019-03-06T21:38:52.036Z,68.20
2019-03-06T21:41:21.253Z,68.10
2019-03-06T21:43:50.449Z,67.90
2019-03-06T21:46:19.755Z,68.00
2019-03-06T21:48:48.872Z,68.50
2019-03-06T21:51:17.945Z,68.20
2019-03-06T21:53:47.014Z,67.90
2019-03-06T21:56:16.215Z,68.00
2019-03-06T21:58:45.192Z,68.00
2019-03-06T22:01:14.539Z,68.00
2019-03-06T22:03:43.593Z,67.60
2019-03-06T22:06:12.649Z,67.70
2019-03-06T22:08:44.508Z,68.80
2019-03-06T22:11:13.582Z,68.00
2019-03-06T22:13:43.784Z,68.20
2019-03-06T22:16:12.936Z,68.00
2019-03-06T22:18:42.252Z,68.50
2019-03-06T22:21:11.447Z,68.70
2019-03-06T22:23:40.686Z,68.40
2019-03-06T22:26:10.290Z,68.70
2019-03-06T22:28:39.587Z,68.60
2019-03-06T22:31:09.128Z,68.80
2019-03-06T22:33:38.175Z,68.90
2019-03-06T22:36:07.472Z,69.10
2019-03-06T22:38:39.044Z,69.30
2019-03-06T22:41:14.404Z,69.30
2019-03-06T22:43:46.510Z,69.40
2019-03-06T22:46:15.550Z,69.60
2019-03-06T22:48:44.587Z,69.60
2019-03-06T22:51:13.926Z,69.60
2019-03-06T22:53:43.057Z,69.60
2019-03-06T22:56:12.102Z,69.60
2019-03-06T22:58:41.299Z,69.80
2019-03-06T23:01:26.896Z,69.80
2019-03-06T23:03:56.588Z,70.00
2019-03-06T23:06:26.043Z,70.20
2019-03-06T23:08:56.367Z,70.20
2019-03-06T23:11:28.526Z,70.40
2019-03-06T23:13:57.680Z,70.60
2019-03-06T23:16:26.943Z,71.10
2019-03-06T23:18:56.121Z,71.40
2019-03-06T23:21:25.563Z,71.30
2019-03-06T23:23:54.574Z,71.50
2019-03-06T23:26:23.679Z,71.60
2019-03-06T23:28:52.726Z,71.60
2019-03-06T23:31:21.708Z,71.80
2019-03-06T23:33:50.751Z,72.10
2019-03-06T23:36:19.786Z,72.40
2019-03-06T23:38:50.130Z,73.00
2019-03-06T23:41:21.549Z,73.30
2019-03-06T23:43:50.563Z,73.50
2019-03-06T23:46:19.613Z,73.80
2019-03-06T23:49:06.185Z,74.70
2019-03-06T23:51:46.541Z,75.40
2019-03-06T23:54:15.691Z,76.90
2019-03-06T23:56:44.763Z,78.30
2019-03-06T23:59:14.299Z,79.10
